sensor_id;sensor_type;location;lat;lon;timestamp;P1;durP1;ratioP1;P2;durP2;ratioP2
17614;SDS011;8926;49.720;6.576;2022-12-28T00:00:44;4.47;;;3.50;;
17614;SDS011;8926;49.720;6.576;2022-12-28T00:03:10;4.30;;;3.43;;
17614;SDS011;8926;49.720;6.576;2022-12-28T00:05:35;5.33;;;4.13;;
17614;SDS011;8926;49.720;6.576;2022-12-28T00:08:00;3.60;;;3.27;;
17614;SDS011;8926;49.720;6.576;2022-12-28T00:10:26;4.90;;;4.07;;
17614;SDS011;8926;49.720;6.576;2022-12-28T00:12:51;5.23;;;4.00;;
17614;SDS011;8926;49.720;6.576;2022-12-28T00:15:16;5.07;;;4.47;;
17614;SDS011;8926;49.720;6.576;2022-12-28T00:17:41;5.00;;;4.30;;
17614;SDS011;8926;49.720;6.576;2022-12-28T00:20:07;4.30;;;3.90;;
17614;SDS011;8926;49.720;6.576;2022-12-28T00:22:33;4.63;;;3.87;;
17614;SDS011;8926;49.720;6.576;2022-12-28T00:24:58;3.77;;;3.47;;
17614;SDS011;8926;49.720;6.576;2022-12-28T00:27:23;4.17;;;3.70;;
17614;SDS011;8926;49.720;6.576;2022-12-28T00:29:49;4.80;;;4.30;;
17614;SDS011;8926;49.720;6.576;2022-12-28T00:32:14;5.20;;;4.37;;
17614;SDS011;8926;49.720;6.576;2022-12-28T00:34:40;6.47;;;4.40;;
17614;SDS011;8926;49.720;6.576;2022-12-28T00:37:05;3.80;;;3.50;;
17614;SDS011;8926;49.720;6.576;2022-12-28T00:39:30;4.97;;;4.33;;
17614;SDS011;8926;49.720;6.576;2022-12-28T00:41:55;4.80;;;4.40;;
17614;SDS011;8926;49.720;6.576;2022-12-28T00:44:21;3.93;;;3.63;;
17614;SDS011;8926;49.720;6.576;2022-12-28T00:46:46;6.73;;;4.30;;
17614;SDS011;8926;49.720;6.576;2022-12-28T00:49:11;4.53;;;4.00;;
17614;SDS011;8926;49.720;6.576;2022-12-28T00:51:37;4.20;;;3.50;;
17614;SDS011;8926;49.720;6.576;2022-12-28T00:54:02;4.53;;;4.07;;
17614;SDS011;8926;49.720;6.576;2022-12-28T00:56:27;4.10;;;3.80;;
17614;SDS011;8926;49.720;6.576;2022-12-28T00:58:56;4.90;;;4.40;;
17614;SDS011;8926;49.720;6.576;2022-12-28T01:01:24;4.23;;;3.93;;
17614;SDS011;8926;49.720;6.576;2022-12-28T01:03:50;4.30;;;4.00;;
17614;SDS011;8926;49.720;6.576;2022-12-28T01:06:16;4.13;;;3.83;;
17614;SDS011;8926;49.720;6.576;2022-12-28T01:08:43;4.23;;;3.90;;
17614;SDS011;8926;49.720;6.576;2022-12-28T01:11:19;4.17;;;3.77;;
17614;SDS011;8926;49.720;6.576;2022-12-28T01:13:46;5.00;;;4.60;;
17614;SDS011;8926;49.720;6.576;2022-12-28T01:16:13;4.00;;;3.67;;
17614;SDS011;8926;49.720;6.576;2022-12-28T01:18:41;4.47;;;4.13;;
17614;SDS011;8926;49.720;6.576;2022-12-28T01:21:08;5.43;;;3.90;;
17614;SDS011;8926;49.720;6.576;2022-12-28T01:23:38;5.23;;;4.73;;
17614;SDS011;8926;49.720;6.576;2022-12-28T01:26:03;4.57;;;4.17;;
17614;SDS011;8926;49.720;6.576;2022-12-28T01:28:28;4.57;;;4.17;;
17614;SDS011;8926;49.720;6.576;2022-12-28T01:30:54;5.23;;;4.73;;
17614;SDS011;8926;49.720;6.576;2022-12-28T01:33:19;4.87;;;4.40;;
17614;SDS011;8926;49.720;6.576;2022-12-28T01:35:45;6.90;;;4.83;;
17614;SDS011;8926;49.720;6.576;2022-12-28T01:38:10;4.43;;;4.13;;
17614;SDS011;8926;49.720;6.576;2022-12-28T01:40:36;4.50;;;4.20;;
17614;SDS011;8926;49.720;6.576;2022-12-28T01:43:03;4.07;;;3.77;;
17614;SDS011;8926;49.720;6.576;2022-12-28T01:45:34;4.27;;;3.90;;
17614;SDS011;8926;49.720;6.576;2022-12-28T01:47:59;4.23;;;3.90;;
17614;SDS011;8926;49.720;6.576;2022-12-28T01:50:25;4.33;;;4.00;;
17614;SDS011;8926;49.720;6.576;2022-12-28T01:52:56;4.23;;;3.93;;
17614;SDS011;8926;49.720;6.576;2022-12-28T01:55:44;4.50;;;4.10;;
17614;SDS011;8926;49.720;6.576;2022-12-28T01:58:12;4.53;;;4.07;;
17614;SDS011;8926;49.720;6.576;2022-12-28T02:00:41;4.80;;;4.40;;
17614;SDS011;8926;49.720;6.576;2022-12-28T02:03:14;4.30;;;3.90;;
17614;SDS011;8926;49.720;6.576;2022-12-28T02:05:45;4.20;;;3.90;;
17614;SDS011;8926;49.720;6.576;2022-12-28T02:08:18;4.27;;;3.93;;
17614;SDS011;8926;49.720;6.576;2022-12-28T02:10:59;4.40;;;4.00;;
17614;SDS011;8926;49.720;6.576;2022-12-28T02:13:25;5.47;;;4.03;;
17614;SDS011;8926;49.720;6.576;2022-12-28T02:15:51;4.20;;;3.83;;
17614;SDS011;8926;49.720;6.576;2022-12-28T02:18:17;3.93;;;3.53;;
17614;SDS011;8926;49.720;6.576;2022-12-28T02:20:56;3.50;;;3.23;;
17614;SDS011;8926;49.720;6.576;2022-12-28T02:23:37;4.10;;;3.80;;
17614;SDS011;8926;49.720;6.576;2022-12-28T02:31:25;4.60;;;4.20;;
17614;SDS011;8926;49.720;6.576;2022-12-28T02:34:03;3.93;;;3.63;;
17614;SDS011;8926;49.720;6.576;2022-12-28T02:36:40;3.60;;;3.30;;
17614;SDS011;8926;49.720;6.576;2022-12-28T02:39:23;3.50;;;3.17;;
17614;SDS011;8926;49.720;6.576;2022-12-28T02:41:58;3.70;;;3.40;;
17614;SDS011;8926;49.720;6.576;2022-12-28T02:44:24;3.93;;;3.50;;
17614;SDS011;8926;49.720;6.576;2022-12-28T02:47:13;4.90;;;3.53;;
17614;SDS011;8926;49.720;6.576;2022-12-28T02:49:58;3.53;;;3.33;;
17614;SDS011;8926;49.720;6.576;2022-12-28T02:58:34;4.43;;;4.03;;
17614;SDS011;8926;49.720;6.576;2022-12-28T03:02:04;3.80;;;3.50;;
17614;SDS011;8926;49.720;6.576;2022-12-28T03:04:30;3.50;;;3.20;;
17614;SDS011;8926;49.720;6.576;2022-12-28T03:07:13;3.67;;;3.37;;
17614;SDS011;8926;49.720;6.576;2022-12-28T03:12:45;3.37;;;3.00;;
17614;SDS011;8926;49.720;6.576;2022-12-28T03:15:29;3.60;;;3.30;;
17614;SDS011;8926;49.720;6.576;2022-12-28T03:20:46;2.80;;;2.60;;
17614;SDS011;8926;49.720;6.576;2022-12-28T03:23:33;3.10;;;2.90;;
17614;SDS011;8926;49.720;6.576;2022-12-28T03:26:20;2.70;;;2.50;;
17614;SDS011;8926;49.720;6.576;2022-12-28T03:29:06;2.83;;;2.63;;
17614;SDS011;8926;49.720;6.576;2022-12-28T03:31:52;4.37;;;2.73;;
17614;SDS011;8926;49.720;6.576;2022-12-28T03:34:17;3.50;;;2.50;;
17614;SDS011;8926;49.720;6.576;2022-12-28T03:42:04;3.13;;;2.50;;
17614;SDS011;8926;49.720;6.576;2022-12-28T03:44:59;2.67;;;2.40;;
17614;SDS011;8926;49.720;6.576;2022-12-28T03:47:30;3.27;;;2.00;;
17614;SDS011;8926;49.720;6.576;2022-12-28T03:49:57;3.77;;;2.17;;
17614;SDS011;8926;49.720;6.576;2022-12-28T03:52:23;3.67;;;2.50;;
17614;SDS011;8926;49.720;6.576;2022-12-28T03:54:50;2.17;;;1.97;;
17614;SDS011;8926;49.720;6.576;2022-12-28T03:57:15;2.33;;;1.80;;
17614;SDS011;8926;49.720;6.576;2022-12-28T03:59:42;2.67;;;1.90;;
17614;SDS011;8926;49.720;6.576;2022-12-28T04:02:07;3.67;;;1.90;;
17614;SDS011;8926;49.720;6.576;2022-12-28T04:04:32;3.80;;;2.10;;
17614;SDS011;8926;49.720;6.576;2022-12-28T04:06:58;2.97;;;2.33;;
17614;SDS011;8926;49.720;6.576;2022-12-28T04:09:23;2.87;;;2.20;;
17614;SDS011;8926;49.720;6.576;2022-12-28T04:11:48;2.33;;;2.00;;
17614;SDS011;8926;49.720;6.576;2022-12-28T04:14:13;3.20;;;1.90;;
17614;SDS011;8926;49.720;6.576;2022-12-28T04:16:39;6.10;;;2.90;;
17614;SDS011;8926;49.720;6.576;2022-12-28T04:19:04;3.17;;;2.20;;
17614;SDS011;8926;49.720;6.576;2022-12-28T04:21:29;3.63;;;1.93;;
17614;SDS011;8926;49.720;6.576;2022-12-28T04:23:54;3.00;;;1.93;;
17614;SDS011;8926;49.720;6.576;2022-12-28T04:26:20;3.13;;;1.90;;
17614;SDS011;8926;49.720;6.576;2022-12-28T04:28:45;2.60;;;1.80;;
17614;SDS011;8926;49.720;6.576;2022-12-28T04:31:12;2.37;;;1.90;;
17614;SDS011;8926;49.720;6.576;2022-12-28T04:33:38;2.77;;;1.87;;
17614;SDS011;8926;49.720;6.576;2022-12-28T04:36:04;2.63;;;1.83;;
17614;SDS011;8926;49.720;6.576;2022-12-28T04:38:31;1.77;;;1.53;;
17614;SDS011;8926;49.720;6.576;2022-12-28T04:40:57;3.47;;;1.80;;
17614;SDS011;8926;49.720;6.576;2022-12-28T04:43:22;1.40;;;1.30;;
17614;SDS011;8926;49.720;6.576;2022-12-28T04:45:57;1.87;;;1.77;;
17614;SDS011;8926;49.720;6.576;2022-12-28T04:48:27;2.93;;;1.67;;
17614;SDS011;8926;49.720;6.576;2022-12-28T04:50:53;2.97;;;1.80;;
17614;SDS011;8926;49.720;6.576;2022-12-28T04:53:19;2.17;;;1.87;;
17614;SDS011;8926;49.720;6.576;2022-12-28T04:55:45;1.70;;;1.60;;
17614;SDS011;8926;49.720;6.576;2022-12-28T04:58:11;4.10;;;2.03;;
17614;SDS011;8926;49.720;6.576;2022-12-28T05:00:36;2.33;;;1.60;;
17614;SDS011;8926;49.720;6.576;2022-12-28T05:03:02;3.57;;;1.97;;
17614;SDS011;8926;49.720;6.576;2022-12-28T05:05:27;4.43;;;2.23;;
17614;SDS011;8926;49.720;6.576;2022-12-28T05:07:53;3.43;;;1.70;;
17614;SDS011;8926;49.720;6.576;2022-12-28T05:10:19;2.13;;;1.80;;
17614;SDS011;8926;49.720;6.576;2022-12-28T05:12:44;2.60;;;1.40;;
17614;SDS011;8926;49.720;6.576;2022-12-28T05:15:10;2.47;;;1.57;;
17614;SDS011;8926;49.720;6.576;2022-12-28T05:17:36;4.27;;;1.60;;
17614;SDS011;8926;49.720;6.576;2022-12-28T05:20:01;2.90;;;1.40;;
17614;SDS011;8926;49.720;6.576;2022-12-28T05:22:27;3.10;;;1.70;;
17614;SDS011;8926;49.720;6.576;2022-12-28T05:24:52;4.03;;;1.87;;
17614;SDS011;8926;49.720;6.576;2022-12-28T05:27:18;1.70;;;1.50;;
17614;SDS011;8926;49.720;6.576;2022-12-28T05:29:43;2.33;;;1.60;;
17614;SDS011;8926;49.720;6.576;2022-12-28T05:32:08;1.60;;;1.50;;
17614;SDS011;8926;49.720;6.576;2022-12-28T05:34:34;2.23;;;1.70;;
17614;SDS011;8926;49.720;6.576;2022-12-28T05:36:59;2.53;;;1.50;;
17614;SDS011;8926;49.720;6.576;2022-12-28T05:39:24;4.20;;;1.77;;
17614;SDS011;8926;49.720;6.576;2022-12-28T05:41:50;1.90;;;1.60;;
17614;SDS011;8926;49.720;6.576;2022-12-28T05:44:15;2.47;;;1.37;;
17614;SDS011;8926;49.720;6.576;2022-12-28T05:46:40;1.33;;;1.30;;
17614;SDS011;8926;49.720;6.576;2022-12-28T05:49:09;4.10;;;1.67;;
17614;SDS011;8926;49.720;6.576;2022-12-28T05:51:34;2.90;;;1.40;;
17614;SDS011;8926;49.720;6.576;2022-12-28T05:54:00;2.60;;;1.53;;
17614;SDS011;8926;49.720;6.576;2022-12-28T05:56:28;3.40;;;1.90;;
17614;SDS011;8926;49.720;6.576;2022-12-28T06:01:21;1.73;;;1.30;;
17614;SDS011;8926;49.720;6.576;2022-12-28T06:03:51;1.70;;;1.60;;
17614;SDS011;8926;49.720;6.576;2022-12-28T06:06:18;2.50;;;1.73;;
17614;SDS011;8926;49.720;6.576;2022-12-28T06:08:45;2.80;;;1.73;;
17614;SDS011;8926;49.720;6.576;2022-12-28T06:11:18;5.00;;;1.93;;
17614;SDS011;8926;49.720;6.576;2022-12-28T06:13:46;2.57;;;1.47;;
17614;SDS011;8926;49.720;6.576;2022-12-28T06:16:12;2.47;;;1.30;;
17614;SDS011;8926;49.720;6.576;2022-12-28T06:18:42;1.37;;;1.27;;
17614;SDS011;8926;49.720;6.576;2022-12-28T06:23:41;2.10;;;1.33;;
17614;SDS011;8926;49.720;6.576;2022-12-28T06:26:07;3.00;;;1.67;;
17614;SDS011;8926;49.720;6.576;2022-12-28T06:28:35;1.73;;;1.20;;
17614;SDS011;8926;49.720;6.576;2022-12-28T06:33:32;2.40;;;1.40;;
17614;SDS011;8926;49.720;6.576;2022-12-28T06:35:58;2.50;;;1.40;;
17614;SDS011;8926;49.720;6.576;2022-12-28T06:38:23;2.47;;;1.40;;
17614;SDS011;8926;49.720;6.576;2022-12-28T06:40:49;1.60;;;1.37;;
17614;SDS011;8926;49.720;6.576;2022-12-28T06:43:14;1.33;;;1.03;;
17614;SDS011;8926;49.720;6.576;2022-12-28T06:45:40;2.90;;;1.77;;
17614;SDS011;8926;49.720;6.576;2022-12-28T06:48:05;2.10;;;1.57;;
17614;SDS011;8926;49.720;6.576;2022-12-28T06:50:30;1.67;;;1.53;;
17614;SDS011;8926;49.720;6.576;2022-12-28T06:52:56;1.60;;;1.30;;
17614;SDS011;8926;49.720;6.576;2022-12-28T06:55:21;3.27;;;1.40;;
17614;SDS011;8926;49.720;6.576;2022-12-28T06:57:46;1.93;;;1.50;;
17614;SDS011;8926;49.720;6.576;2022-12-28T07:00:12;2.47;;;1.70;;
17614;SDS011;8926;49.720;6.576;2022-12-28T07:02:37;3.57;;;1.70;;
17614;SDS011;8926;49.720;6.576;2022-12-28T07:05:03;2.93;;;1.57;;
17614;SDS011;8926;49.720;6.576;2022-12-28T07:07:28;4.10;;;1.70;;
17614;SDS011;8926;49.720;6.576;2022-12-28T07:09:53;3.87;;;1.80;;
17614;SDS011;8926;49.720;6.576;2022-12-28T07:12:19;1.87;;;1.60;;
17614;SDS011;8926;49.720;6.576;2022-12-28T07:14:44;1.40;;;1.30;;
17614;SDS011;8926;49.720;6.576;2022-12-28T07:17:09;3.33;;;1.60;;
17614;SDS011;8926;49.720;6.576;2022-12-28T07:19:35;1.97;;;1.70;;
17614;SDS011;8926;49.720;6.576;2022-12-28T07:22:00;3.00;;;1.70;;
17614;SDS011;8926;49.720;6.576;2022-12-28T07:24:27;2.90;;;1.50;;
17614;SDS011;8926;49.720;6.576;2022-12-28T07:26:52;3.50;;;1.50;;
17614;SDS011;8926;49.720;6.576;2022-12-28T07:29:18;1.80;;;1.70;;
17614;SDS011;8926;49.720;6.576;2022-12-28T07:31:43;3.97;;;1.90;;
17614;SDS011;8926;49.720;6.576;2022-12-28T07:34:08;4.03;;;2.20;;
17614;SDS011;8926;49.720;6.576;2022-12-28T07:36:34;3.07;;;1.40;;
17614;SDS011;8926;49.720;6.576;2022-12-28T07:38:59;1.97;;;1.60;;
17614;SDS011;8926;49.720;6.576;2022-12-28T07:41:26;1.53;;;1.43;;
17614;SDS011;8926;49.720;6.576;2022-12-28T07:43:53;2.20;;;1.70;;
17614;SDS011;8926;49.720;6.576;2022-12-28T07:46:20;2.17;;;1.87;;
17614;SDS011;8926;49.720;6.576;2022-12-28T07:48:47;2.87;;;1.70;;
17614;SDS011;8926;49.720;6.576;2022-12-28T07:51:17;2.53;;;1.90;;
17614;SDS011;8926;49.720;6.576;2022-12-28T07:56:20;1.77;;;1.43;;
17614;SDS011;8926;49.720;6.576;2022-12-28T07:58:51;2.33;;;1.50;;
17614;SDS011;8926;49.720;6.576;2022-12-28T08:01:21;3.40;;;2.10;;
17614;SDS011;8926;49.720;6.576;2022-12-28T08:03:51;1.97;;;1.50;;
17614;SDS011;8926;49.720;6.576;2022-12-28T08:06:18;2.07;;;1.50;;
17614;SDS011;8926;49.720;6.576;2022-12-28T08:08:47;1.50;;;1.40;;
17614;SDS011;8926;49.720;6.576;2022-12-28T08:11:16;1.83;;;1.30;;
17614;SDS011;8926;49.720;6.576;2022-12-28T08:13:44;1.40;;;1.30;;
17614;SDS011;8926;49.720;6.576;2022-12-28T08:16:12;3.00;;;1.80;;
17614;SDS011;8926;49.720;6.576;2022-12-28T08:18:39;2.10;;;1.57;;
17614;SDS011;8926;49.720;6.576;2022-12-28T08:21:06;1.77;;;1.40;;
17614;SDS011;8926;49.720;6.576;2022-12-28T08:23:34;3.10;;;2.00;;
17614;SDS011;8926;49.720;6.576;2022-12-28T08:26:06;1.87;;;1.70;;
17614;SDS011;8926;49.720;6.576;2022-12-28T08:28:33;3.90;;;2.40;;
17614;SDS011;8926;49.720;6.576;2022-12-28T08:31:09;2.47;;;1.80;;
17614;SDS011;8926;49.720;6.576;2022-12-28T08:33:45;5.77;;;2.27;;
17614;SDS011;8926;49.720;6.576;2022-12-28T08:36:11;3.63;;;1.77;;
17614;SDS011;8926;49.720;6.576;2022-12-28T08:38:37;3.33;;;1.77;;
17614;SDS011;8926;49.720;6.576;2022-12-28T08:41:04;3.70;;;1.80;;
17614;SDS011;8926;49.720;6.576;2022-12-28T08:43:31;2.10;;;1.60;;
17614;SDS011;8926;49.720;6.576;2022-12-28T08:46:02;3.83;;;1.80;;
17614;SDS011;8926;49.720;6.576;2022-12-28T08:48:27;4.37;;;1.70;;
17614;SDS011;8926;49.720;6.576;2022-12-28T08:50:54;1.80;;;1.27;;
17614;SDS011;8926;49.720;6.576;2022-12-28T08:53:20;2.93;;;1.63;;
17614;SDS011;8926;49.720;6.576;2022-12-28T08:55:48;1.83;;;1.73;;
17614;SDS011;8926;49.720;6.576;2022-12-28T08:58:15;1.83;;;1.73;;
17614;SDS011;8926;49.720;6.576;2022-12-28T09:00:41;2.13;;;1.50;;
17614;SDS011;8926;49.720;6.576;2022-12-28T09:03:06;2.33;;;1.63;;
17614;SDS011;8926;49.720;6.576;2022-12-28T09:05:31;4.43;;;2.30;;
17614;SDS011;8926;49.720;6.576;2022-12-28T09:07:56;4.07;;;1.70;;
17614;SDS011;8926;49.720;6.576;2022-12-28T09:10:22;3.07;;;1.90;;
17614;SDS011;8926;49.720;6.576;2022-12-28T09:12:47;2.20;;;1.53;;
17614;SDS011;8926;49.720;6.576;2022-12-28T09:15:12;2.80;;;1.60;;
17614;SDS011;8926;49.720;6.576;2022-12-28T09:17:38;2.57;;;1.70;;
17614;SDS011;8926;49.720;6.576;2022-12-28T09:20:03;2.17;;;1.67;;
17614;SDS011;8926;49.720;6.576;2022-12-28T09:22:32;2.93;;;1.70;;
17614;SDS011;8926;49.720;6.576;2022-12-28T09:24:57;3.07;;;1.87;;
17614;SDS011;8926;49.720;6.576;2022-12-28T09:27:22;2.20;;;1.53;;
17614;SDS011;8926;49.720;6.576;2022-12-28T09:29:47;3.47;;;1.67;;
17614;SDS011;8926;49.720;6.576;2022-12-28T09:32:13;3.10;;;1.77;;
17614;SDS011;8926;49.720;6.576;2022-12-28T09:34:38;2.40;;;1.57;;
17614;SDS011;8926;49.720;6.576;2022-12-28T09:37:04;3.23;;;1.40;;
17614;SDS011;8926;49.720;6.576;2022-12-28T09:39:30;1.47;;;1.23;;
17614;SDS011;8926;49.720;6.576;2022-12-28T09:42:00;1.93;;;1.77;;
17614;SDS011;8926;49.720;6.576;2022-12-28T09:54:55;3.00;;;1.63;;
17614;SDS011;8926;49.720;6.576;2022-12-28T09:57:36;3.33;;;1.63;;
17614;SDS011;8926;49.720;6.576;2022-12-28T10:00:06;2.13;;;1.37;;
17614;SDS011;8926;49.720;6.576;2022-12-28T10:02:38;2.67;;;1.50;;
17614;SDS011;8926;49.720;6.576;2022-12-28T10:05:05;1.57;;;1.33;;
17614;SDS011;8926;49.720;6.576;2022-12-28T10:07:31;2.40;;;1.53;;
17614;SDS011;8926;49.720;6.576;2022-12-28T10:09:57;1.43;;;1.33;;
17614;SDS011;8926;49.720;6.576;2022-12-28T10:12:22;1.40;;;1.30;;
17614;SDS011;8926;49.720;6.576;2022-12-28T10:14:48;2.87;;;1.83;;
17614;SDS011;8926;49.720;6.576;2022-12-28T10:17:15;5.77;;;2.00;;
17614;SDS011;8926;49.720;6.576;2022-12-28T10:19:45;7.17;;;2.33;;
17614;SDS011;8926;49.720;6.576;2022-12-28T10:22:12;3.97;;;2.80;;
17614;SDS011;8926;49.720;6.576;2022-12-28T10:24:41;2.17;;;1.80;;
17614;SDS011;8926;49.720;6.576;2022-12-28T10:27:11;4.13;;;2.00;;
17614;SDS011;8926;49.720;6.576;2022-12-28T10:29:47;1.93;;;1.40;;
17614;SDS011;8926;49.720;6.576;2022-12-28T10:32:14;1.97;;;1.43;;
17614;SDS011;8926;49.720;6.576;2022-12-28T10:34:53;2.70;;;2.10;;
17614;SDS011;8926;49.720;6.576;2022-12-28T10:37:25;2.10;;;2.00;;
17614;SDS011;8926;49.720;6.576;2022-12-28T10:39:54;2.50;;;2.30;;
17614;SDS011;8926;49.720;6.576;2022-12-28T10:42:23;4.37;;;3.47;;
17614;SDS011;8926;49.720;6.576;2022-12-28T10:44:51;2.27;;;2.10;;
17614;SDS011;8926;49.720;6.576;2022-12-28T10:47:27;2.63;;;2.30;;
17614;SDS011;8926;49.720;6.576;2022-12-28T10:49:55;3.77;;;2.50;;
17614;SDS011;8926;49.720;6.576;2022-12-28T10:52:21;3.67;;;2.30;;
17614;SDS011;8926;49.720;6.576;2022-12-28T10:54:47;2.77;;;2.53;;
17614;SDS011;8926;49.720;6.576;2022-12-28T10:57:20;2.77;;;2.43;;
17614;SDS011;8926;49.720;6.576;2022-12-28T11:00:04;1.90;;;1.80;;
17614;SDS011;8926;49.720;6.576;2022-12-28T11:02:39;1.83;;;1.73;;
17614;SDS011;8926;49.720;6.576;2022-12-28T11:05:05;2.60;;;2.13;;
17614;SDS011;8926;49.720;6.576;2022-12-28T11:07:31;3.90;;;2.17;;
17614;SDS011;8926;49.720;6.576;2022-12-28T11:12:52;3.73;;;2.90;;
17614;SDS011;8926;49.720;6.576;2022-12-28T11:15:23;5.17;;;2.50;;
17614;SDS011;8926;49.720;6.576;2022-12-28T11:17:53;2.47;;;1.70;;
17614;SDS011;8926;49.720;6.576;2022-12-28T11:20:25;2.53;;;1.97;;
17614;SDS011;8926;49.720;6.576;2022-12-28T11:23:00;5.40;;;2.03;;
17614;SDS011;8926;49.720;6.576;2022-12-28T11:25:31;5.57;;;4.27;;
17614;SDS011;8926;49.720;6.576;2022-12-28T11:27:59;1.97;;;1.80;;
17614;SDS011;8926;49.720;6.576;2022-12-28T11:30:31;3.30;;;1.93;;
17614;SDS011;8926;49.720;6.576;2022-12-28T11:32:57;2.40;;;1.80;;
17614;SDS011;8926;49.720;6.576;2022-12-28T11:35:28;1.77;;;1.67;;
17614;SDS011;8926;49.720;6.576;2022-12-28T11:37:57;2.47;;;2.07;;
17614;SDS011;8926;49.720;6.576;2022-12-28T11:43:34;5.23;;;2.73;;
17614;SDS011;8926;49.720;6.576;2022-12-28T11:51:16;1.90;;;1.60;;
17614;SDS011;8926;49.720;6.576;2022-12-28T11:56:19;2.50;;;2.23;;
17614;SDS011;8926;49.720;6.576;2022-12-28T12:11:59;4.40;;;2.70;;
17614;SDS011;8926;49.720;6.576;2022-12-28T12:20:04;3.20;;;2.23;;
17614;SDS011;8926;49.720;6.576;2022-12-28T12:22:42;2.30;;;1.90;;
17614;SDS011;8926;49.720;6.576;2022-12-28T12:25:22;2.60;;;1.90;;
17614;SDS011;8926;49.720;6.576;2022-12-28T12:27:54;3.10;;;2.30;;
17614;SDS011;8926;49.720;6.576;2022-12-28T12:30:23;2.80;;;2.20;;
17614;SDS011;8926;49.720;6.576;2022-12-28T12:33:02;2.00;;;1.70;;
17614;SDS011;8926;49.720;6.576;2022-12-28T12:35:31;3.37;;;1.90;;
17614;SDS011;8926;49.720;6.576;2022-12-28T12:40:49;2.80;;;2.00;;
17614;SDS011;8926;49.720;6.576;2022-12-28T12:49:06;2.50;;;2.17;;
17614;SDS011;8926;49.720;6.576;2022-12-28T12:51:45;2.60;;;2.40;;
17614;SDS011;8926;49.720;6.576;2022-12-28T12:54:30;3.97;;;2.00;;
17614;SDS011;8926;49.720;6.576;2022-12-28T12:57:19;15.50;;;9.80;;
17614;SDS011;8926;49.720;6.576;2022-12-28T13:02:39;2.50;;;2.30;;
17614;SDS011;8926;49.720;6.576;2022-12-28T13:05:08;2.27;;;2.17;;
17614;SDS011;8926;49.720;6.576;2022-12-28T13:07:40;2.97;;;1.80;;
17614;SDS011;8926;49.720;6.576;2022-12-28T13:10:05;2.10;;;1.60;;
17614;SDS011;8926;49.720;6.576;2022-12-28T13:12:37;2.17;;;1.80;;
17614;SDS011;8926;49.720;6.576;2022-12-28T13:15:05;2.20;;;1.20;;
17614;SDS011;8926;49.720;6.576;2022-12-28T13:17:30;2.17;;;2.00;;
17614;SDS011;8926;49.720;6.576;2022-12-28T13:22:45;1.40;;;1.30;;
17614;SDS011;8926;49.720;6.576;2022-12-28T13:25:31;4.43;;;2.33;;
17614;SDS011;8926;49.720;6.576;2022-12-28T13:28:01;3.23;;;3.03;;
17614;SDS011;8926;49.720;6.576;2022-12-28T13:30:28;3.90;;;3.60;;
17614;SDS011;8926;49.720;6.576;2022-12-28T13:33:00;4.80;;;4.50;;
17614;SDS011;8926;49.720;6.576;2022-12-28T13:35:29;4.33;;;3.93;;
17614;SDS011;8926;49.720;6.576;2022-12-28T13:37:59;4.07;;;3.77;;
17614;SDS011;8926;49.720;6.576;2022-12-28T13:40:26;1.80;;;1.70;;
17614;SDS011;8926;49.720;6.576;2022-12-28T13:45:25;2.50;;;2.30;;
17614;SDS011;8926;49.720;6.576;2022-12-28T13:47:50;4.53;;;2.17;;
17614;SDS011;8926;49.720;6.576;2022-12-28T13:50:26;2.70;;;2.50;;
17614;SDS011;8926;49.720;6.576;2022-12-28T13:53:04;2.90;;;1.60;;
17614;SDS011;8926;49.720;6.576;2022-12-28T13:55:41;1.20;;;1.10;;
17614;SDS011;8926;49.720;6.576;2022-12-28T13:58:16;2.10;;;1.80;;
17614;SDS011;8926;49.720;6.576;2022-12-28T14:01:03;5.10;;;4.60;;
17614;SDS011;8926;49.720;6.576;2022-12-28T14:03:37;4.10;;;3.70;;
17614;SDS011;8926;49.720;6.576;2022-12-28T14:06:04;1.83;;;1.67;;
17614;SDS011;8926;49.720;6.576;2022-12-28T14:08:34;1.60;;;1.50;;
17614;SDS011;8926;49.720;6.576;2022-12-28T14:11:02;2.50;;;2.33;;
17614;SDS011;8926;49.720;6.576;2022-12-28T14:13:29;1.90;;;1.80;;
17614;SDS011;8926;49.720;6.576;2022-12-28T14:15:56;1.50;;;1.40;;
17614;SDS011;8926;49.720;6.576;2022-12-28T14:18:23;1.10;;;1.00;;
17614;SDS011;8926;49.720;6.576;2022-12-28T14:20:53;2.27;;;1.47;;
17614;SDS011;8926;49.720;6.576;2022-12-28T14:23:24;1.93;;;1.80;;
17614;SDS011;8926;49.720;6.576;2022-12-28T14:26:04;1.50;;;1.40;;
17614;SDS011;8926;49.720;6.576;2022-12-28T14:31:06;3.23;;;1.57;;
17614;SDS011;8926;49.720;6.576;2022-12-28T14:33:33;2.33;;;1.50;;
17614;SDS011;8926;49.720;6.576;2022-12-28T14:36:03;1.40;;;1.03;;
17614;SDS011;8926;49.720;6.576;2022-12-28T14:38:31;1.70;;;1.53;;
17614;SDS011;8926;49.720;6.576;2022-12-28T14:41:27;1.43;;;1.33;;
17614;SDS011;8926;49.720;6.576;2022-12-28T14:44:02;1.80;;;1.10;;
17614;SDS011;8926;49.720;6.576;2022-12-28T14:46:38;1.20;;;1.20;;
17614;SDS011;8926;49.720;6.576;2022-12-28T14:49:23;1.63;;;1.53;;
17614;SDS011;8926;49.720;6.576;2022-12-28T14:52:23;1.10;;;1.00;;
17614;SDS011;8926;49.720;6.576;2022-12-28T14:54:45;4.03;;;1.10;;
17614;SDS011;8926;49.720;6.576;2022-12-28T15:00:52;3.70;;;3.40;;
17614;SDS011;8926;49.720;6.576;2022-12-28T15:06:11;1.93;;;1.40;;
17614;SDS011;8926;49.720;6.576;2022-12-28T15:08:36;2.33;;;1.30;;
17614;SDS011;8926;49.720;6.576;2022-12-28T15:11:02;1.40;;;1.30;;
17614;SDS011;8926;49.720;6.576;2022-12-28T15:13:27;1.30;;;1.20;;
17614;SDS011;8926;49.720;6.576;2022-12-28T15:15:59;1.17;;;1.13;;
17614;SDS011;8926;49.720;6.576;2022-12-28T15:18:26;1.40;;;1.10;;
17614;SDS011;8926;49.720;6.576;2022-12-28T15:20:53;1.60;;;1.50;;
17614;SDS011;8926;49.720;6.576;2022-12-28T15:23:19;1.80;;;1.70;;
17614;SDS011;8926;49.720;6.576;2022-12-28T15:25:45;1.70;;;1.60;;
17614;SDS011;8926;49.720;6.576;2022-12-28T15:28:10;1.97;;;1.87;;
17614;SDS011;8926;49.720;6.576;2022-12-28T15:30:38;1.60;;;1.50;;
17614;SDS011;8926;49.720;6.576;2022-12-28T15:33:07;1.33;;;1.23;;
17614;SDS011;8926;49.720;6.576;2022-12-28T15:35:33;1.50;;;1.40;;
17614;SDS011;8926;49.720;6.576;2022-12-28T15:37:58;2.00;;;1.80;;
17614;SDS011;8926;49.720;6.576;2022-12-28T15:40:24;1.83;;;1.73;;
17614;SDS011;8926;49.720;6.576;2022-12-28T15:42:49;2.27;;;1.80;;
17614;SDS011;8926;49.720;6.576;2022-12-28T15:45:14;2.30;;;1.80;;
17614;SDS011;8926;49.720;6.576;2022-12-28T15:47:40;3.87;;;2.30;;
17614;SDS011;8926;49.720;6.576;2022-12-28T15:50:06;1.97;;;1.77;;
17614;SDS011;8926;49.720;6.576;2022-12-28T15:52:31;1.97;;;1.83;;
17614;SDS011;8926;49.720;6.576;2022-12-28T15:54:57;4.13;;;3.77;;
17614;SDS011;8926;49.720;6.576;2022-12-28T15:57:23;2.50;;;2.30;;
17614;SDS011;8926;49.720;6.576;2022-12-28T15:59:48;3.73;;;3.50;;
17614;SDS011;8926;49.720;6.576;2022-12-28T16:02:14;3.87;;;3.57;;
17614;SDS011;8926;49.720;6.576;2022-12-28T16:04:40;3.00;;;2.80;;
17614;SDS011;8926;49.720;6.576;2022-12-28T16:07:05;2.53;;;2.40;;
17614;SDS011;8926;49.720;6.576;2022-12-28T16:09:31;2.63;;;2.43;;
17614;SDS011;8926;49.720;6.576;2022-12-28T16:11:56;3.00;;;2.80;;
17614;SDS011;8926;49.720;6.576;2022-12-28T16:14:21;2.70;;;2.50;;
17614;SDS011;8926;49.720;6.576;2022-12-28T16:16:47;2.50;;;2.30;;
17614;SDS011;8926;49.720;6.576;2022-12-28T16:19:13;2.67;;;2.20;;
17614;SDS011;8926;49.720;6.576;2022-12-28T16:21:39;5.47;;;2.37;;
17614;SDS011;8926;49.720;6.576;2022-12-28T16:24:06;3.40;;;3.10;;
17614;SDS011;8926;49.720;6.576;2022-12-28T16:26:31;2.90;;;2.60;;
17614;SDS011;8926;49.720;6.576;2022-12-28T16:29:00;2.97;;;2.70;;
17614;SDS011;8926;49.720;6.576;2022-12-28T16:31:33;2.50;;;2.30;;
17614;SDS011;8926;49.720;6.576;2022-12-28T16:34:03;2.57;;;2.37;;
17614;SDS011;8926;49.720;6.576;2022-12-28T16:36:30;3.40;;;3.10;;
17614;SDS011;8926;49.720;6.576;2022-12-28T16:38:55;3.10;;;2.80;;
17614;SDS011;8926;49.720;6.576;2022-12-28T16:41:21;2.70;;;2.43;;
17614;SDS011;8926;49.720;6.576;2022-12-28T16:43:47;2.90;;;2.70;;
17614;SDS011;8926;49.720;6.576;2022-12-28T16:46:13;4.10;;;3.00;;
17614;SDS011;8926;49.720;6.576;2022-12-28T16:48:39;3.60;;;3.30;;
17614;SDS011;8926;49.720;6.576;2022-12-28T16:51:04;3.03;;;2.83;;